createdAt,value
2018-05-15T00:00:25.171Z,3.70
2018-05-15T00:02:52.746Z,4.60
2018-05-15T00:05:20.307Z,3.83
2018-05-15T00:07:48.224Z,5.13
2018-05-15T00:10:15.796Z,3.70
2018-05-15T00:12:43.370Z,4.20
2018-05-15T00:15:10.964Z,4.50
2018-05-15T00:17:38.537Z,4.47
2018-05-15T00:20:06.754Z,5.67
2018-05-15T00:22:34.321Z,4.80
2018-05-15T00:25:01.897Z,4.83
2018-05-15T00:27:30.237Z,4.40
2018-05-15T00:29:57.799Z,6.10
2018-05-15T00:32:25.379Z,5.00
2018-05-15T00:34:52.964Z,4.13
2018-05-15T00:37:20.553Z,4.60
2018-05-15T00:39:48.116Z,4.83
2018-05-15T00:42:15.730Z,3.80
2018-05-15T00:44:43.408Z,5.10
2018-05-15T00:47:11.735Z,4.87
2018-05-15T00:49:39.357Z,3.70
2018-05-15T00:52:06.970Z,4.00
2018-05-15T00:54:34.545Z,4.00
2018-05-15T00:57:02.146Z,4.10
2018-05-15T00:59:29.744Z,3.80
2018-05-15T01:01:57.316Z,3.53
2018-05-15T01:04:24.905Z,4.60
2018-05-15T01:06:53.356Z,4.10
2018-05-15T01:09:20.968Z,4.20
2018-05-15T01:11:48.542Z,4.03
2018-05-15T01:14:16.121Z,3.73
2018-05-15T01:16:43.740Z,3.80
2018-05-15T01:19:11.389Z,4.57
2018-05-15T01:21:39.752Z,4.40
2018-05-15T01:24:07.329Z,3.30
2018-05-15T01:26:35.654Z,3.97
2018-05-15T01:29:03.219Z,4.00
2018-05-15T01:31:30.818Z,4.23
2018-05-15T01:33:58.424Z,3.57
2018-05-15T01:36:26.026Z,4.03
2018-05-15T01:38:53.623Z,3.90
2018-05-15T01:41:21.247Z,5.17
2018-05-15T01:43:48.909Z,4.40
2018-05-15T01:46:16.496Z,4.23
2018-05-15T01:48:44.850Z,3.67
2018-05-15T01:51:12.503Z,4.17
2018-05-15T01:53:40.077Z,5.47
2018-05-15T01:56:07.653Z,4.43
2018-05-15T01:58:36.052Z,5.20
2018-05-15T02:01:03.664Z,4.37
2018-05-15T02:03:31.249Z,3.53
2018-05-15T02:05:58.841Z,3.63
2018-05-15T02:08:26.457Z,4.33
2018-05-15T02:10:54.063Z,3.80
2018-05-15T02:13:21.654Z,3.90
2018-05-15T02:15:49.328Z,4.32
2018-05-15T02:18:16.935Z,4.22
2018-05-15T02:20:45.263Z,3.77
2018-05-15T02:23:12.900Z,3.90
2018-05-15T02:25:40.474Z,4.80
2018-05-15T02:28:08.068Z,4.23
2018-05-15T02:30:36.417Z,4.07
2018-05-15T02:33:04.028Z,4.37
2018-05-15T02:35:32.359Z,3.97
2018-05-15T02:37:59.974Z,4.35
2018-05-15T02:40:27.552Z,4.22
2018-05-15T02:42:55.124Z,4.35
2018-05-15T02:45:22.738Z,5.30
2018-05-15T02:47:51.120Z,4.12
2018-05-15T02:50:19.499Z,4.53
2018-05-15T02:52:47.892Z,4.07
2018-05-15T02:55:15.505Z,4.35
2018-05-15T02:57:43.106Z,4.35
2018-05-15T03:00:11.477Z,3.85
2018-05-15T03:02:39.851Z,5.05
2018-05-15T03:05:08.260Z,4.32
2018-05-15T03:07:35.870Z,5.80
2018-05-15T03:10:03.491Z,4.78
2018-05-15T03:12:31.159Z,5.25
2018-05-15T03:14:58.809Z,4.70
2018-05-15T03:17:26.466Z,4.65
2018-05-15T03:19:54.152Z,5.05
2018-05-15T03:22:21.774Z,5.60
2018-05-15T03:24:50.164Z,5.05
2018-05-15T03:27:17.801Z,4.43
2018-05-15T03:29:46.144Z,4.60
2018-05-15T03:32:13.763Z,4.75
2018-05-15T03:34:41.394Z,5.60
2018-05-15T03:37:08.968Z,4.53
2018-05-15T03:39:37.330Z,4.80
2018-05-15T03:42:04.938Z,5.50
2018-05-15T03:44:32.578Z,5.40
2018-05-15T03:47:00.958Z,4.53
2018-05-15T03:49:28.577Z,5.65
2018-05-15T03:51:56.246Z,5.82
2018-05-15T03:54:23.919Z,5.18
2018-05-15T03:56:51.534Z,4.82
2018-05-15T03:59:19.113Z,6.40
2018-05-15T04:01:58.508Z,5.07
2018-05-15T04:04:37.751Z,5.30
2018-05-15T04:07:17.409Z,4.65
2018-05-15T04:09:45.047Z,5.43
2018-05-15T04:12:12.639Z,5.70
2018-05-15T04:14:40.243Z,5.35
2018-05-15T04:17:09.162Z,5.32
2018-05-15T04:19:36.756Z,5.35
2018-05-15T04:22:04.410Z,5.70
2018-05-15T04:24:32.009Z,5.40
2018-05-15T04:27:00.380Z,5.37
2018-05-15T04:29:28.035Z,5.37
2018-05-15T04:31:57.172Z,5.32
2018-05-15T04:34:24.761Z,5.85
2018-05-15T04:36:52.379Z,5.53
2018-05-15T04:39:19.937Z,4.90
2018-05-15T04:41:47.533Z,5.15
2018-05-15T04:44:15.736Z,5.93
2018-05-15T04:46:43.434Z,6.60
2018-05-15T04:49:11.016Z,5.15
2018-05-15T04:51:38.657Z,5.85
2018-05-15T04:54:06.313Z,6.25
2018-05-15T04:56:33.891Z,5.40
2018-05-15T04:59:01.553Z,5.67
2018-05-15T05:01:29.130Z,5.47
2018-05-15T05:03:56.834Z,5.50
2018-05-15T05:06:24.517Z,6.90
2018-05-15T05:08:52.118Z,4.70
2018-05-15T05:11:20.721Z,4.50
2018-05-15T05:13:48.716Z,7.40
2018-05-15T05:16:16.340Z,4.93
2018-05-15T05:18:43.985Z,4.70
2018-05-15T05:21:11.620Z,5.53
2018-05-15T05:23:39.234Z,5.30
2018-05-15T05:26:06.918Z,5.40
2018-05-15T05:28:34.548Z,5.03
2018-05-15T05:31:02.248Z,5.23
2018-05-15T05:33:29.889Z,6.10
2018-05-15T05:35:57.512Z,5.10
2018-05-15T05:38:25.904Z,5.40
2018-05-15T05:40:54.285Z,5.90
2018-05-15T05:43:21.879Z,4.67
2018-05-15T05:45:49.503Z,5.10
2018-05-15T05:48:17.269Z,5.00
2018-05-15T05:50:45.750Z,5.17
2018-05-15T05:53:13.453Z,5.60
2018-05-15T05:55:41.093Z,5.03
2018-05-15T05:58:08.693Z,5.30
2018-05-15T06:00:36.331Z,5.50
2018-05-15T06:03:03.926Z,5.53
2018-05-15T06:05:31.581Z,5.50
2018-05-15T06:07:59.181Z,6.17
2018-05-15T06:10:26.905Z,5.43
2018-05-15T06:12:54.532Z,4.47
2018-05-15T06:15:22.107Z,7.23
2018-05-15T06:17:49.753Z,5.40
2018-05-15T06:20:17.387Z,5.03
2018-05-15T06:22:44.988Z,5.33
2018-05-15T06:25:12.574Z,4.90
2018-05-15T06:27:40.245Z,5.40
2018-05-15T06:30:07.831Z,5.10
2018-05-15T06:32:36.224Z,5.33
2018-05-15T06:35:03.818Z,5.63
2018-05-15T06:37:31.407Z,5.40
2018-05-15T06:39:59.022Z,5.73
2018-05-15T06:42:26.799Z,5.60
2018-05-15T06:44:54.435Z,5.93
2018-05-15T06:47:22.028Z,6.23
2018-05-15T06:49:49.637Z,5.63
2018-05-15T06:52:17.240Z,5.67
2018-05-15T06:54:45.031Z,7.40
2018-05-15T06:57:12.628Z,7.33
2018-05-15T06:59:40.240Z,6.00
2018-05-15T07:02:07.856Z,5.30
2018-05-15T07:04:35.473Z,6.07
2018-05-15T07:07:03.067Z,5.80
2018-05-15T07:09:31.410Z,6.57
2018-05-15T07:11:59.043Z,5.93
2018-05-15T07:14:26.951Z,10.53
2018-05-15T07:16:55.304Z,6.67
2018-05-15T07:19:22.989Z,5.93
2018-05-15T07:21:50.521Z,6.10
2018-05-15T07:24:18.184Z,6.77
2018-05-15T07:26:45.753Z,5.90
2018-05-15T07:29:13.345Z,6.33
2018-05-15T07:31:41.671Z,6.37
2018-05-15T07:34:09.253Z,5.73
2018-05-15T07:36:36.856Z,6.60
2018-05-15T07:39:06.192Z,6.30
2018-05-15T07:41:33.811Z,6.17
2018-05-15T07:44:01.446Z,5.67
2018-05-15T07:46:29.040Z,6.00
2018-05-15T07:48:56.773Z,6.10
2018-05-15T07:51:24.393Z,5.03
2018-05-15T07:53:51.961Z,5.60
2018-05-15T07:56:19.591Z,5.60
2018-05-15T07:58:47.190Z,6.47
2018-05-15T08:01:14.852Z,6.07
2018-05-15T08:03:42.450Z,5.90
2018-05-15T08:06:10.017Z,5.50
2018-05-15T08:08:38.406Z,6.20
2018-05-15T08:11:06.778Z,6.40
2018-05-15T08:13:35.164Z,5.33
2018-05-15T08:16:03.576Z,5.27
2018-05-15T08:18:31.196Z,5.43
2018-05-15T08:20:59.599Z,6.00
2018-05-15T08:23:27.295Z,4.93
2018-05-15T08:25:54.868Z,4.90
2018-05-15T08:28:22.445Z,5.40
2018-05-15T08:30:50.119Z,5.00
2018-05-15T08:33:17.703Z,4.57
2018-05-15T08:35:45.330Z,5.10
2018-05-15T08:38:12.922Z,4.33
2018-05-15T08:40:40.559Z,5.57
2018-05-15T08:43:08.142Z,5.83
2018-05-15T08:45:35.780Z,5.77
2018-05-15T08:48:03.394Z,5.07
2018-05-15T08:50:31.033Z,5.13
2018-05-15T08:52:58.608Z,4.30
2018-05-15T08:55:26.191Z,5.83
2018-05-15T08:57:53.926Z,4.50
2018-05-15T09:00:21.587Z,3.97
2018-05-15T09:02:49.213Z,4.50
2018-05-15T09:05:17.728Z,5.40
2018-05-15T09:07:45.428Z,5.00
2018-05-15T09:10:13.054Z,4.30
2018-05-15T09:12:40.620Z,4.70
2018-05-15T09:15:08.361Z,4.57
2018-05-15T09:17:35.943Z,4.17
2018-05-15T09:20:03.704Z,4.03
2018-05-15T09:22:31.494Z,4.70
2018-05-15T09:24:59.168Z,4.03
2018-05-15T09:27:26.767Z,3.80
2018-05-15T09:29:54.578Z,4.10
2018-05-15T09:32:22.160Z,4.27
2018-05-15T09:34:49.769Z,4.00
2018-05-15T09:37:17.410Z,4.60
2018-05-15T09:39:45.047Z,3.80
2018-05-15T09:42:12.732Z,4.40
2018-05-15T09:44:41.116Z,5.03
2018-05-15T09:47:09.606Z,4.00
2018-05-15T09:49:37.231Z,4.67
2018-05-15T09:52:04.868Z,4.70
2018-05-15T09:54:32.531Z,5.00
2018-05-15T09:57:01.047Z,5.03
2018-05-15T09:59:28.655Z,4.37
2018-05-15T10:01:56.276Z,4.10
2018-05-15T10:04:23.904Z,5.30
2018-05-15T10:06:51.511Z,4.97
2018-05-15T10:09:19.867Z,4.90
2018-05-15T10:11:47.474Z,4.97
2018-05-15T10:14:15.229Z,4.30
2018-05-15T10:16:43.695Z,4.60
2018-05-15T10:19:11.304Z,4.50
2018-05-15T10:21:38.934Z,4.63
2018-05-15T10:24:07.385Z,4.20
2018-05-15T10:26:35.821Z,5.77
2018-05-15T10:29:03.484Z,5.03
2018-05-15T10:31:31.119Z,4.00
2018-05-15T10:33:58.673Z,4.30
2018-05-15T10:36:27.091Z,4.53
2018-05-15T10:38:54.683Z,4.57
2018-05-15T10:41:22.296Z,4.30
2018-05-15T10:43:49.999Z,3.93
2018-05-15T10:46:17.586Z,4.77
2018-05-15T10:48:45.518Z,3.67
2018-05-15T10:51:13.164Z,5.07
2018-05-15T10:53:40.774Z,5.90
2018-05-15T10:56:08.433Z,4.10
2018-05-15T10:58:36.972Z,4.33
2018-05-15T11:01:04.557Z,4.00
2018-05-15T11:03:32.260Z,4.63
2018-05-15T11:06:00.608Z,4.83
2018-05-15T11:08:28.209Z,4.00
2018-05-15T11:10:56.698Z,5.67
2018-05-15T11:13:24.308Z,5.77
2018-05-15T11:15:51.936Z,5.23
2018-05-15T11:18:43.232Z,4.10
2018-05-15T11:21:22.710Z,5.20
2018-05-15T11:24:02.147Z,3.93
2018-05-15T11:26:29.807Z,5.40
2018-05-15T11:28:57.409Z,4.80
2018-05-15T11:31:25.015Z,5.17
2018-05-15T11:33:52.634Z,4.53
2018-05-15T11:36:20.206Z,4.67
2018-05-15T11:38:49.791Z,4.27
2018-05-15T11:41:17.382Z,4.40
2018-05-15T11:43:45.822Z,6.17
2018-05-15T11:46:13.410Z,4.17
2018-05-15T11:48:42.374Z,4.40
2018-05-15T11:51:10.158Z,4.60
2018-05-15T11:53:37.007Z,4.53
2018-05-15T11:56:04.662Z,5.27
2018-05-15T11:58:32.249Z,3.90
2018-05-15T12:01:00.669Z,3.93
2018-05-15T12:03:28.364Z,4.03
2018-05-15T12:05:55.974Z,3.87
2018-05-15T12:08:23.581Z,3.90
2018-05-15T12:10:51.195Z,3.47
2018-05-15T12:13:19.640Z,3.97
2018-05-15T12:15:47.233Z,4.10
2018-05-15T12:18:14.871Z,5.07
2018-05-15T12:20:43.250Z,3.87
2018-05-15T12:23:11.682Z,3.73
2018-05-15T12:25:39.260Z,3.80
2018-05-15T12:28:06.934Z,4.73
2018-05-15T12:30:34.532Z,3.70
2018-05-15T12:33:02.203Z,3.90
2018-05-15T12:35:29.835Z,4.07
2018-05-15T12:37:57.444Z,4.13
2018-05-15T12:40:25.074Z,3.70
2018-05-15T12:42:52.720Z,3.53
2018-05-15T12:45:20.317Z,4.00
2018-05-15T12:47:47.980Z,4.30
2018-05-15T12:50:15.710Z,3.60
2018-05-15T12:52:43.662Z,3.33
2018-05-15T12:55:11.298Z,3.57
2018-05-15T12:57:39.715Z,4.23
2018-05-15T13:00:07.339Z,4.07
2018-05-15T13:02:34.992Z,3.37
2018-05-15T13:05:02.644Z,5.57
2018-05-15T13:07:30.244Z,3.73
2018-05-15T13:09:57.977Z,3.57
2018-05-15T13:12:25.599Z,3.40
2018-05-15T13:14:53.298Z,4.03
2018-05-15T13:17:20.898Z,3.40
2018-05-15T13:19:48.569Z,3.57
2018-05-15T13:22:16.211Z,3.73
2018-05-15T13:24:43.995Z,3.43
2018-05-15T13:27:11.564Z,4.37
2018-05-15T13:29:39.954Z,3.87
2018-05-15T13:32:08.303Z,4.07
2018-05-15T13:34:36.018Z,3.20
2018-05-15T13:37:03.652Z,4.00
2018-05-15T13:39:32.128Z,3.70
2018-05-15T13:42:01.393Z,4.40
2018-05-15T13:44:29.040Z,4.57
2018-05-15T13:46:56.734Z,4.60
2018-05-15T13:49:24.360Z,4.07
2018-05-15T13:51:51.993Z,3.70
2018-05-15T13:54:25.292Z,4.53
2018-05-15T13:56:52.892Z,4.27
2018-05-15T13:59:20.587Z,3.93
2018-05-15T14:01:48.611Z,4.03
2018-05-15T14:04:16.300Z,3.70
2018-05-15T14:06:44.147Z,4.20
2018-05-15T14:09:12.685Z,3.90
2018-05-15T14:11:42.137Z,4.20
2018-05-15T14:14:09.742Z,3.93
2018-05-15T14:16:37.372Z,4.10
2018-05-15T14:19:05.620Z,3.90
2018-05-15T14:21:33.289Z,4.67
2018-05-15T14:24:00.985Z,3.97
2018-05-15T14:26:28.646Z,3.57
2018-05-15T14:28:56.427Z,4.30
2018-05-15T14:31:24.084Z,3.90
2018-05-15T14:33:51.731Z,4.37
2018-05-15T14:36:20.395Z,3.20
2018-05-15T14:38:48.112Z,2.90
2018-05-15T14:41:15.831Z,3.70
2018-05-15T14:43:43.490Z,4.70
2018-05-15T14:46:11.182Z,3.17
2018-05-15T14:48:38.905Z,3.73
2018-05-15T14:54:05.972Z,4.00
2018-05-15T14:56:33.587Z,3.57
2018-05-15T14:59:01.944Z,3.70
2018-05-15T15:01:29.565Z,3.70
2018-05-15T15:03:57.176Z,3.50
2018-05-15T15:06:24.744Z,3.33
2018-05-15T15:08:52.371Z,4.20
2018-05-15T15:11:20.001Z,3.63
2018-05-15T15:13:48.389Z,3.90
2018-05-15T15:16:15.966Z,3.90
2018-05-15T15:18:43.559Z,4.27
2018-05-15T15:21:11.277Z,4.00
2018-05-15T15:23:38.907Z,3.87
2018-05-15T15:26:06.490Z,5.03
2018-05-15T15:28:34.153Z,3.70
2018-05-15T15:31:01.801Z,4.27
2018-05-15T15:33:30.204Z,7.90
2018-05-15T15:35:57.835Z,4.40
2018-05-15T15:38:25.429Z,5.10
2018-05-15T15:40:53.064Z,4.30
2018-05-15T15:43:21.410Z,4.50
2018-05-15T15:45:48.997Z,5.10
2018-05-15T15:48:17.378Z,3.73
2018-05-15T15:50:45.753Z,4.63
2018-05-15T15:53:14.930Z,4.43
2018-05-15T15:55:42.535Z,4.33
2018-05-15T15:58:10.082Z,4.37
2018-05-15T16:00:38.438Z,5.17
2018-05-15T16:03:06.055Z,3.90
2018-05-15T16:05:34.452Z,4.53
2018-05-15T16:08:02.154Z,3.50
2018-05-15T16:10:29.856Z,4.17
2018-05-15T16:12:57.484Z,3.70
2018-05-15T16:15:25.082Z,4.27
2018-05-15T16:17:52.641Z,3.53
2018-05-15T16:20:20.257Z,3.93
2018-05-15T16:22:47.958Z,4.50
2018-05-15T16:25:15.605Z,4.07
2018-05-15T16:27:43.933Z,3.27
2018-05-15T16:30:11.553Z,4.37
2018-05-15T16:32:39.212Z,3.70
2018-05-15T16:35:07.617Z,3.83
2018-05-15T16:37:35.245Z,4.10
2018-05-15T16:40:03.631Z,3.30
2018-05-15T16:42:32.017Z,4.30
2018-05-15T16:44:59.624Z,5.90
2018-05-15T16:47:27.234Z,4.27
2018-05-15T16:49:54.803Z,4.43
2018-05-15T16:52:22.551Z,3.30
2018-05-15T16:54:51.374Z,4.30
2018-05-15T16:57:18.986Z,4.80
2018-05-15T16:59:47.187Z,3.50
2018-05-15T17:02:14.804Z,3.90
2018-05-15T17:04:42.376Z,4.13
2018-05-15T17:07:10.007Z,4.57
2018-05-15T17:09:37.620Z,3.93
2018-05-15T17:12:06.004Z,3.57
2018-05-15T17:14:34.371Z,4.60
2018-05-15T17:17:02.727Z,4.50
2018-05-15T17:19:30.400Z,4.13
2018-05-15T17:21:58.014Z,3.60
2018-05-15T17:24:25.577Z,4.50
2018-05-15T17:26:53.285Z,4.43
2018-05-15T17:29:21.673Z,4.00
2018-05-15T17:31:49.251Z,4.70
2018-05-15T17:34:16.906Z,4.47
2018-05-15T17:36:44.706Z,3.77
2018-05-15T17:39:12.315Z,5.07
2018-05-15T17:41:39.932Z,5.10
2018-05-15T17:44:07.608Z,5.47
2018-05-15T17:46:35.263Z,4.70
2018-05-15T17:49:02.931Z,4.40
2018-05-15T17:51:30.540Z,4.17
2018-05-15T17:53:58.897Z,4.57
2018-05-15T17:56:28.572Z,3.93
2018-05-15T17:58:56.132Z,4.50
2018-05-15T18:01:23.783Z,4.63
2018-05-15T18:03:51.365Z,3.90
2018-05-15T18:06:18.996Z,4.70
2018-05-15T18:08:46.600Z,3.67
2018-05-15T18:11:14.183Z,4.83
2018-05-15T18:13:41.765Z,4.70
2018-05-15T18:16:10.250Z,3.73
2018-05-15T18:18:37.884Z,4.17
2018-05-15T18:21:05.481Z,4.33
2018-05-15T18:23:33.122Z,4.20
2018-05-15T18:26:01.471Z,5.30
2018-05-15T18:28:29.038Z,5.10
2018-05-15T18:30:56.625Z,4.83
2018-05-15T18:33:25.001Z,5.30
2018-05-15T18:35:52.624Z,4.67
2018-05-15T18:38:20.283Z,4.10
2018-05-15T18:40:47.936Z,4.13
2018-05-15T18:43:15.572Z,4.30
2018-05-15T18:45:43.182Z,4.10
2018-05-15T18:48:10.762Z,4.53
2018-05-15T18:50:39.224Z,4.17
2018-05-15T18:53:06.875Z,4.40
2018-05-15T18:55:35.045Z,4.20
2018-05-15T18:58:02.708Z,4.20
2018-05-15T19:00:30.259Z,4.13
2018-05-15T19:02:57.873Z,4.43
2018-05-15T19:05:25.487Z,4.90
2018-05-15T19:07:53.056Z,3.90
2018-05-15T19:10:20.627Z,5.47
2018-05-15T19:12:48.250Z,4.10
2018-05-15T19:15:15.856Z,5.80
2018-05-15T19:17:44.252Z,6.87
2018-05-15T19:20:12.607Z,5.30
2018-05-15T19:22:40.222Z,4.93
2018-05-15T19:25:07.788Z,5.93
2018-05-15T19:27:35.381Z,4.33
2018-05-15T19:30:02.985Z,4.70
2018-05-15T19:32:36.376Z,5.10
2018-05-15T19:35:07.828Z,5.83
2018-05-15T19:37:35.434Z,7.30
2018-05-15T19:40:08.729Z,5.60
2018-05-15T19:42:36.323Z,5.80
2018-05-15T19:45:03.998Z,5.00
2018-05-15T19:47:31.609Z,4.73
2018-05-15T19:49:59.172Z,5.17
2018-05-15T19:52:26.769Z,4.63
2018-05-15T19:54:55.135Z,4.83
2018-05-15T19:57:22.807Z,4.73
2018-05-15T19:59:50.385Z,4.20
2018-05-15T20:02:18.209Z,6.10
2018-05-15T20:04:45.886Z,4.83
2018-05-15T20:07:13.519Z,4.30
2018-05-15T20:09:41.716Z,5.90
2018-05-15T20:12:09.380Z,6.20
2018-05-15T20:14:36.935Z,4.87
2018-05-15T20:17:04.589Z,4.80
2018-05-15T20:19:32.224Z,5.37
2018-05-15T20:21:59.840Z,5.20
2018-05-15T20:24:28.198Z,4.77
2018-05-15T20:26:55.864Z,4.53
2018-05-15T20:29:24.224Z,5.00
2018-05-15T20:31:51.819Z,5.63
2018-05-15T20:34:20.135Z,4.80
2018-05-15T20:36:47.693Z,4.87
2018-05-15T20:39:15.291Z,5.27
2018-05-15T20:41:42.998Z,5.50
2018-05-15T20:44:10.611Z,4.80
2018-05-15T20:46:38.235Z,5.33
2018-05-15T20:49:10.163Z,5.40
2018-05-15T20:51:38.539Z,5.37
2018-05-15T20:54:06.880Z,4.90
2018-05-15T20:56:34.534Z,6.00
2018-05-15T20:59:02.172Z,5.23
2018-05-15T21:01:29.739Z,5.30
2018-05-15T21:03:57.369Z,5.63
2018-05-15T21:06:25.729Z,5.57
2018-05-15T21:08:53.365Z,5.70
2018-05-15T21:11:20.925Z,5.70
2018-05-15T21:13:48.608Z,4.93
2018-05-15T21:16:16.184Z,6.80
2018-05-15T21:18:43.737Z,5.17
2018-05-15T21:21:11.358Z,5.23
2018-05-15T21:23:38.977Z,5.73
2018-05-15T21:26:07.326Z,5.20
2018-05-15T21:28:34.927Z,6.00
2018-05-15T21:31:03.333Z,6.03
2018-05-15T21:33:30.916Z,6.13
2018-05-15T21:35:58.595Z,5.20
2018-05-15T21:38:26.176Z,5.07
2018-05-15T21:40:54.537Z,5.50
2018-05-15T21:43:22.114Z,5.63
2018-05-15T21:45:50.439Z,5.23
2018-05-15T21:48:18.016Z,6.70
2018-05-15T21:50:45.629Z,6.83
2018-05-15T21:53:13.247Z,6.60
2018-05-15T21:55:40.837Z,6.70
2018-05-15T21:58:08.458Z,5.90
2018-05-15T22:00:36.058Z,5.80
2018-05-15T22:03:03.705Z,5.90
2018-05-15T22:05:31.295Z,5.10
2018-05-15T22:07:59.620Z,5.00
2018-05-15T22:10:27.235Z,5.60
2018-05-15T22:13:07.768Z,5.07
2018-05-15T22:15:47.512Z,6.63
2018-05-15T22:18:27.492Z,5.50
2018-05-15T22:21:07.397Z,5.27
2018-05-15T22:23:34.489Z,6.50
2018-05-15T22:26:02.850Z,5.73
2018-05-15T22:28:30.432Z,5.73
2018-05-15T22:30:58.757Z,5.57
2018-05-15T22:33:26.398Z,6.40
2018-05-15T22:35:53.984Z,6.77
2018-05-15T22:38:21.604Z,5.60
2018-05-15T22:40:49.155Z,6.17
2018-05-15T22:43:16.823Z,5.77
2018-05-15T22:45:44.552Z,5.00
2018-05-15T22:48:12.546Z,5.93
2018-05-15T22:50:40.908Z,6.60
2018-05-15T22:53:08.529Z,5.23
2018-05-15T22:55:36.125Z,5.17
2018-05-15T22:58:04.456Z,5.80
2018-05-15T23:00:32.082Z,5.80
2018-05-15T23:02:59.665Z,5.90
2018-05-15T23:05:27.267Z,5.10
2018-05-15T23:07:54.862Z,5.43
2018-05-15T23:10:22.504Z,6.00
2018-05-15T23:12:50.197Z,5.80
2018-05-15T23:15:17.841Z,5.40
2018-05-15T23:17:46.226Z,6.13
2018-05-15T23:20:14.639Z,5.17
2018-05-15T23:22:42.269Z,5.87
2018-05-15T23:25:10.598Z,6.00
2018-05-15T23:27:38.192Z,6.40
2018-05-15T23:30:05.769Z,5.60
2018-05-15T23:32:34.146Z,5.80
2018-05-15T23:35:02.486Z,6.00
2018-05-15T23:37:30.145Z,6.10
2018-05-15T23:39:57.734Z,6.37
2018-05-15T23:42:25.356Z,5.43
2018-05-15T23:44:52.981Z,6.30
2018-05-15T23:47:20.623Z,5.47
2018-05-15T23:49:48.943Z,5.67
2018-05-15T23:52:16.538Z,5.00
2018-05-15T23:54:44.138Z,6.03
2018-05-15T23:57:12.488Z,5.33
2018-05-15T23:59:40.088Z,5.53
